createdAt,value
2019-01-23T00:00:29.950Z,72.90
2019-01-23T00:02:57.971Z,69.83
2019-01-23T00:05:25.996Z,66.00
2019-01-23T00:07:54.016Z,64.07
2019-01-23T00:10:22.034Z,70.47
2019-01-23T00:12:50.060Z,70.70
2019-01-23T00:15:18.094Z,70.23
2019-01-23T00:17:46.143Z,72.97
2019-01-23T00:20:14.167Z,60.50
2019-01-23T00:22:42.253Z,70.33
2019-01-23T00:25:11.075Z,67.50
2019-01-23T00:27:39.127Z,75.53
2019-01-23T00:30:15.837Z,72.33
2019-01-23T00:32:44.011Z,69.37
2019-01-23T00:35:12.034Z,64.97
2019-01-23T00:37:40.048Z,64.17
2019-01-23T00:40:09.731Z,75.17
2019-01-23T00:42:37.771Z,76.43
2019-01-23T00:45:07.308Z,72.70
2019-01-23T00:47:35.362Z,67.77
2019-01-23T00:50:04.268Z,72.00
2019-01-23T00:52:32.307Z,65.03
2019-01-23T00:55:00.327Z,66.57
2019-01-23T00:57:29.984Z,74.37
2019-01-23T00:59:58.788Z,64.27
2019-01-23T01:02:26.918Z,71.17
2019-01-23T01:04:54.975Z,63.13
2019-01-23T01:07:23.061Z,63.53
2019-01-23T01:09:52.111Z,63.35
2019-01-23T01:12:20.178Z,66.77
2019-01-23T01:14:48.283Z,60.80
2019-01-23T01:17:16.336Z,64.25
2019-01-23T01:19:44.343Z,59.80
2019-01-23T01:22:12.400Z,70.52
2019-01-23T01:24:40.755Z,62.97
2019-01-23T01:27:09.540Z,66.40
2019-01-23T01:29:37.549Z,63.43
2019-01-23T01:32:06.327Z,61.20
2019-01-23T01:34:34.349Z,63.87
2019-01-23T01:37:02.447Z,60.57
2019-01-23T01:39:30.484Z,63.63
2019-01-23T01:42:00.128Z,59.47
2019-01-23T01:44:28.185Z,59.60
2019-01-23T01:46:56.202Z,64.93
2019-01-23T01:49:24.294Z,74.13
2019-01-23T01:51:53.966Z,70.80
2019-01-23T01:54:22.628Z,60.58
2019-01-23T01:57:21.109Z,66.13
2019-01-23T02:01:52.840Z,65.30
2019-01-23T02:04:20.870Z,66.73
2019-01-23T02:06:48.935Z,60.80
2019-01-23T02:11:49.245Z,68.73
2019-01-23T02:14:17.269Z,65.77
2019-01-23T02:16:45.366Z,64.23
2019-01-23T02:19:13.639Z,59.87
2019-01-23T02:21:41.741Z,66.17
2019-01-23T02:24:09.776Z,65.20
2019-01-23T02:26:37.924Z,65.00
2019-01-23T02:29:10.343Z,66.77
2019-01-23T02:31:40.030Z,65.00
2019-01-23T02:34:10.671Z,66.83
2019-01-23T02:36:39.390Z,63.70
2019-01-23T02:39:07.478Z,70.27
2019-01-23T02:41:35.605Z,66.37
2019-01-23T02:44:03.614Z,62.33
2019-01-23T02:46:31.637Z,66.03
2019-01-23T02:49:01.964Z,66.50
2019-01-23T02:51:29.547Z,62.10
2019-01-23T02:54:29.541Z,72.10
2019-01-23T02:56:46.889Z,72.83
2019-01-23T02:59:17.519Z,64.70
2019-01-23T03:01:44.703Z,57.70
2019-01-23T03:04:12.728Z,55.10
2019-01-23T03:06:40.801Z,62.85
2019-01-23T03:09:08.941Z,66.97
2019-01-23T03:11:37.407Z,61.87
2019-01-23T03:14:05.456Z,64.13
2019-01-23T03:16:33.594Z,57.53
2019-01-23T03:19:01.635Z,58.00
2019-01-23T03:21:31.674Z,57.77
2019-01-23T03:23:59.524Z,63.35
2019-01-23T03:26:27.576Z,60.87
2019-01-23T03:28:58.357Z,58.00
2019-01-23T03:31:26.388Z,52.43
2019-01-23T03:33:54.532Z,55.37
2019-01-23T03:36:22.549Z,61.20
2019-01-23T03:38:50.667Z,61.10
2019-01-23T03:41:18.672Z,58.00
2019-01-23T03:43:46.737Z,52.57
2019-01-23T03:46:16.387Z,52.62
2019-01-23T03:48:44.538Z,54.53
2019-01-23T03:51:13.169Z,53.03
2019-01-23T03:53:42.924Z,59.33
2019-01-23T03:56:11.044Z,63.23
2019-01-23T03:58:39.063Z,54.27
2019-01-23T04:01:07.190Z,52.10
2019-01-23T04:03:35.247Z,54.58
2019-01-23T04:06:03.341Z,57.13
2019-01-23T04:08:32.170Z,56.93
2019-01-23T04:11:00.228Z,56.00
2019-01-23T04:13:28.783Z,56.10
2019-01-23T04:15:56.803Z,52.85
2019-01-23T04:18:24.940Z,58.00
2019-01-23T04:20:52.973Z,51.83
2019-01-23T04:23:22.728Z,57.53
2019-01-23T04:25:52.972Z,52.85
2019-01-23T04:28:21.020Z,58.17
2019-01-23T04:30:49.566Z,60.92
2019-01-23T04:33:23.837Z,57.90
2019-01-23T04:35:47.465Z,51.03
2019-01-23T04:38:15.535Z,58.17
2019-01-23T04:40:43.577Z,54.42
2019-01-23T04:43:14.777Z,53.70
2019-01-23T04:45:43.011Z,53.13
2019-01-23T04:48:11.135Z,54.90
2019-01-23T04:50:59.579Z,51.63
2019-01-23T04:53:32.031Z,53.15
2019-01-23T04:56:01.915Z,55.40
2019-01-23T04:58:32.007Z,58.03
2019-01-23T05:00:59.805Z,57.57
2019-01-23T05:03:27.862Z,57.00
2019-01-23T05:05:55.906Z,60.53
2019-01-23T05:08:23.960Z,61.90
2019-01-23T05:10:52.077Z,60.53
2019-01-23T05:13:20.805Z,54.77
2019-01-23T05:15:48.924Z,59.63
2019-01-23T05:18:17.044Z,58.87
2019-01-23T05:20:47.782Z,56.45
2019-01-23T05:23:15.832Z,62.33
2019-01-23T05:25:43.886Z,60.83
2019-01-23T05:28:12.051Z,52.62
2019-01-23T05:30:40.134Z,58.90
2019-01-23T05:33:08.191Z,65.13
2019-01-23T05:35:38.035Z,59.83
2019-01-23T05:38:06.177Z,53.53
2019-01-23T05:40:34.323Z,50.93
2019-01-23T05:43:02.436Z,54.95
2019-01-23T05:45:32.676Z,60.70
2019-01-23T05:48:01.983Z,53.40
2019-01-23T05:50:30.351Z,58.10
2019-01-23T05:53:00.560Z,53.43
2019-01-23T05:55:29.685Z,55.43
2019-01-23T05:57:57.785Z,62.33
2019-01-23T06:00:34.862Z,52.43
2019-01-23T06:03:02.952Z,52.43
2019-01-23T06:05:31.049Z,56.00
2019-01-23T06:08:01.445Z,56.03
2019-01-23T06:10:29.517Z,54.17
2019-01-23T06:12:57.660Z,52.83
2019-01-23T06:15:25.813Z,58.85
2019-01-23T06:17:58.461Z,59.37
2019-01-23T06:20:46.114Z,62.90
2019-01-23T06:23:14.265Z,58.17
2019-01-23T06:25:44.013Z,58.53
2019-01-23T06:28:12.093Z,79.53
2019-01-23T06:30:40.198Z,69.53
2019-01-23T06:33:08.269Z,50.70
2019-01-23T06:35:38.206Z,68.47
2019-01-23T06:38:06.522Z,62.27
2019-01-23T06:40:34.708Z,64.30
2019-01-23T06:43:02.872Z,61.80
2019-01-23T06:45:31.076Z,55.77
2019-01-23T06:47:59.231Z,59.73
2019-01-23T06:50:27.392Z,58.43
2019-01-23T06:53:01.624Z,52.43
2019-01-23T06:55:26.903Z,61.07
2019-01-23T06:57:55.098Z,55.35
2019-01-23T07:00:25.604Z,51.83
2019-01-23T07:02:53.344Z,53.60
2019-01-23T07:05:21.426Z,55.28
2019-01-23T07:07:49.573Z,53.87
2019-01-23T07:10:18.914Z,53.10
2019-01-23T07:12:47.061Z,59.47
2019-01-23T07:15:16.031Z,57.43
2019-01-23T07:17:44.152Z,61.00
2019-01-23T07:20:16.628Z,60.47
2019-01-23T07:22:44.702Z,55.50
2019-01-23T07:25:12.866Z,60.50
2019-01-23T07:27:40.991Z,60.15
2019-01-23T07:30:16.736Z,55.45
2019-01-23T07:32:44.799Z,57.83
2019-01-23T07:35:12.927Z,54.90
2019-01-23T07:37:43.213Z,64.17
2019-01-23T07:40:11.423Z,60.23
2019-01-23T07:42:39.633Z,64.03
2019-01-23T07:45:09.351Z,56.37
2019-01-23T07:47:51.222Z,59.10
2019-01-23T07:50:10.034Z,67.00
2019-01-23T07:52:38.155Z,56.10
2019-01-23T07:57:56.887Z,64.25
2019-01-23T08:00:31.641Z,68.13
2019-01-23T08:02:57.689Z,57.10
2019-01-23T08:05:25.793Z,57.37
2019-01-23T08:07:54.096Z,67.63
2019-01-23T08:10:22.336Z,59.30
2019-01-23T08:12:53.973Z,63.20
2019-01-23T08:15:23.315Z,64.43
2019-01-23T08:17:51.468Z,64.00
2019-01-23T08:20:22.929Z,65.43
2019-01-23T08:22:50.996Z,64.73
2019-01-23T08:25:19.072Z,71.13
2019-01-23T08:27:47.132Z,77.13
2019-01-23T08:30:16.801Z,62.97
2019-01-23T08:32:44.860Z,62.45
2019-01-23T08:35:12.916Z,62.97
2019-01-23T08:37:59.658Z,58.30
2019-01-23T08:40:16.333Z,64.40
2019-01-23T08:42:44.558Z,62.10
2019-01-23T08:45:16.730Z,62.13
2019-01-23T08:47:44.872Z,63.07
2019-01-23T08:50:14.532Z,65.70
2019-01-23T08:52:42.633Z,69.07
2019-01-23T08:55:13.418Z,60.77
2019-01-23T08:57:44.633Z,65.95
2019-01-23T09:00:15.818Z,63.57
2019-01-23T09:02:43.954Z,65.03
2019-01-23T09:05:12.374Z,63.73
2019-01-23T09:07:40.488Z,68.17
2019-01-23T09:10:12.567Z,63.85
2019-01-23T09:12:40.610Z,67.87
2019-01-23T09:15:12.052Z,73.20
2019-01-23T09:17:40.201Z,65.83
2019-01-23T09:20:10.160Z,61.13
2019-01-23T09:22:38.248Z,62.90
2019-01-23T09:25:10.508Z,61.73
2019-01-23T09:27:38.679Z,68.13
2019-01-23T09:30:08.630Z,65.40
2019-01-23T09:32:38.343Z,61.70
2019-01-23T09:35:08.065Z,64.67
2019-01-23T09:37:40.730Z,62.05
2019-01-23T09:40:10.385Z,64.27
2019-01-23T09:42:52.303Z,54.35
2019-01-23T09:45:24.690Z,59.57
2019-01-23T09:47:56.013Z,63.90
2019-01-23T09:50:31.993Z,61.13
2019-01-23T09:53:07.893Z,58.00
2019-01-23T09:55:37.600Z,60.70
2019-01-23T09:58:05.812Z,62.17
2019-01-23T10:00:33.918Z,63.33
2019-01-23T10:03:07.777Z,61.73
2019-01-23T10:05:33.393Z,58.97
2019-01-23T10:08:01.517Z,57.13
2019-01-23T10:10:29.644Z,63.17
2019-01-23T10:12:57.724Z,61.13
2019-01-23T10:15:27.457Z,62.17
2019-01-23T10:17:55.467Z,52.63
2019-01-23T10:20:25.344Z,56.83
2019-01-23T10:22:56.388Z,61.27
2019-01-23T10:25:24.433Z,52.80
2019-01-23T10:27:52.539Z,57.33
2019-01-23T10:30:20.671Z,58.17
2019-01-23T10:32:48.802Z,88.80
2019-01-23T10:35:18.475Z,67.75
2019-01-23T10:37:48.228Z,64.47
2019-01-23T10:40:16.987Z,55.90
2019-01-23T10:42:45.062Z,67.33
2019-01-23T10:45:13.873Z,60.77
2019-01-23T10:47:44.771Z,58.57
2019-01-23T10:50:16.127Z,61.13
2019-01-23T10:52:44.237Z,53.57
2019-01-23T10:55:12.265Z,55.17
2019-01-23T10:57:42.436Z,57.07
2019-01-23T11:00:12.284Z,62.50
2019-01-23T11:02:45.722Z,61.33
2019-01-23T11:05:15.623Z,58.50
2019-01-23T11:07:43.733Z,61.33
2019-01-23T11:10:13.494Z,60.37
2019-01-23T11:12:41.644Z,62.13
2019-01-23T11:15:09.761Z,57.10
2019-01-23T11:17:42.426Z,61.20
2019-01-23T11:20:12.015Z,57.50
2019-01-23T11:22:40.200Z,62.33
2019-01-23T11:25:13.693Z,65.00
2019-01-23T11:27:41.804Z,62.73
2019-01-23T11:30:11.400Z,56.17
2019-01-23T11:32:39.488Z,58.43
2019-01-23T11:35:08.632Z,52.50
2019-01-23T11:37:36.694Z,59.30
2019-01-23T11:40:13.511Z,63.37
2019-01-23T11:42:41.870Z,60.57
2019-01-23T11:45:11.673Z,61.87
2019-01-23T11:47:39.810Z,62.33
2019-01-23T11:50:09.590Z,63.20
2019-01-23T11:52:37.813Z,59.13
2019-01-23T11:55:06.874Z,59.03
2019-01-23T11:57:35.279Z,62.50
2019-01-23T12:00:03.728Z,60.97
2019-01-23T12:02:31.774Z,61.08
2019-01-23T12:04:59.988Z,71.80
2019-01-23T12:07:29.247Z,63.80
2019-01-23T12:09:57.366Z,67.40
2019-01-23T12:12:28.233Z,63.30
2019-01-23T12:14:56.342Z,60.33
2019-01-23T12:17:24.495Z,60.78
2019-01-23T12:19:54.655Z,63.67
2019-01-23T12:22:22.527Z,68.77
2019-01-23T12:24:50.687Z,72.87
2019-01-23T12:27:18.790Z,68.27
2019-01-23T12:29:47.049Z,65.22
2019-01-23T12:32:18.392Z,67.60
2019-01-23T12:34:46.775Z,65.17
2019-01-23T12:37:20.749Z,71.37
2019-01-23T12:39:48.971Z,66.77
2019-01-23T12:42:17.108Z,57.88
2019-01-23T12:44:48.627Z,67.77
2019-01-23T12:47:16.715Z,63.27
2019-01-23T12:49:44.931Z,62.63
2019-01-23T12:52:13.127Z,65.52
2019-01-23T12:54:41.252Z,65.87
2019-01-23T12:57:12.138Z,66.67
2019-01-23T12:59:40.305Z,62.20
2019-01-23T13:02:11.284Z,60.77
2019-01-23T13:04:39.327Z,69.87
2019-01-23T13:07:07.448Z,65.67
2019-01-23T13:09:35.580Z,61.45
2019-01-23T13:12:03.720Z,56.37
2019-01-23T13:14:42.226Z,60.67
2019-01-23T13:17:10.308Z,64.75
2019-01-23T13:19:41.433Z,65.47
2019-01-23T13:22:09.574Z,67.83
2019-01-23T13:24:37.621Z,66.12
2019-01-23T13:27:16.031Z,65.77
2019-01-23T13:29:41.674Z,56.95
2019-01-23T13:32:09.849Z,56.73
2019-01-23T13:34:38.326Z,62.43
2019-01-23T13:37:06.441Z,57.90
2019-01-23T13:39:34.583Z,67.42
2019-01-23T13:42:03.592Z,57.40
2019-01-23T13:44:31.732Z,51.30
2019-01-23T13:46:59.741Z,54.90
2019-01-23T13:49:27.951Z,59.95
2019-01-23T13:52:03.120Z,46.80
2019-01-23T13:54:26.585Z,45.33
2019-01-23T13:56:54.897Z,44.33
2019-01-23T13:59:23.141Z,41.10
2019-01-23T14:01:56.187Z,39.70
2019-01-23T14:04:21.197Z,52.20
2019-01-23T14:06:58.459Z,50.43
2019-01-23T14:09:26.671Z,49.33
2019-01-23T14:11:54.784Z,45.13
2019-01-23T14:14:24.239Z,49.73
2019-01-23T14:16:52.269Z,42.23
2019-01-23T14:21:54.830Z,43.10
2019-01-23T14:24:22.992Z,45.87
2019-01-23T14:26:51.153Z,47.00
2019-01-23T14:29:41.149Z,47.20
2019-01-23T14:32:09.275Z,42.97
2019-01-23T14:34:37.444Z,43.92
2019-01-23T14:37:05.543Z,42.43
2019-01-23T14:39:39.530Z,40.10
2019-01-23T14:42:06.610Z,37.33
2019-01-23T14:44:34.667Z,41.87
2019-01-23T14:47:02.781Z,37.83
2019-01-23T14:49:34.145Z,39.40
2019-01-23T14:52:02.253Z,44.77
2019-01-23T14:54:32.445Z,41.37
2019-01-23T14:57:00.581Z,47.57
2019-01-23T14:59:33.784Z,43.93
2019-01-23T15:02:01.999Z,51.28
2019-01-23T15:04:30.235Z,48.77
2019-01-23T15:06:58.387Z,45.83
2019-01-23T15:09:28.377Z,71.30
2019-01-23T15:11:56.261Z,48.37
2019-01-23T15:14:24.319Z,49.20
2019-01-23T15:16:55.082Z,57.00
2019-01-23T15:19:23.132Z,51.13
2019-01-23T15:21:51.263Z,53.83
2019-01-23T15:24:21.147Z,55.40
2019-01-23T15:26:49.283Z,57.83
2019-01-23T15:29:17.414Z,56.93
2019-01-23T15:31:45.524Z,52.33
2019-01-23T15:34:13.632Z,59.77
2019-01-23T15:36:46.296Z,58.30
2019-01-23T15:39:14.379Z,64.32
2019-01-23T15:41:47.046Z,65.78
2019-01-23T15:44:15.208Z,57.80
2019-01-23T15:46:44.992Z,72.67
2019-01-23T15:49:13.055Z,68.77
2019-01-23T15:51:41.220Z,68.33
2019-01-23T15:54:09.287Z,65.10
2019-01-23T15:56:37.346Z,57.05
2019-01-23T15:59:05.377Z,55.47
2019-01-23T16:01:36.655Z,61.40
2019-01-23T16:04:04.839Z,63.78
2019-01-23T16:06:32.936Z,69.00
2019-01-23T16:09:01.388Z,62.83
2019-01-23T16:11:29.450Z,66.77
2019-01-23T16:13:57.607Z,61.63
2019-01-23T16:16:25.806Z,59.80
2019-01-23T16:18:53.921Z,61.80
2019-01-23T16:21:21.995Z,58.42
2019-01-23T16:23:50.024Z,64.07
2019-01-23T16:26:20.742Z,54.37
2019-01-23T16:28:48.518Z,65.17
2019-01-23T16:31:16.648Z,60.78
2019-01-23T16:33:47.801Z,59.07
2019-01-23T16:36:15.845Z,60.30
2019-01-23T16:38:43.948Z,72.83
2019-01-23T16:41:16.827Z,60.73
2019-01-23T16:43:44.998Z,62.48
2019-01-23T16:46:13.060Z,65.77
2019-01-23T16:48:41.088Z,60.83
2019-01-23T16:51:09.181Z,117.63
2019-01-23T16:53:38.712Z,69.83
2019-01-23T16:56:06.850Z,66.13
2019-01-23T16:58:34.876Z,57.67
2019-01-23T17:01:02.983Z,67.87
2019-01-23T17:03:31.084Z,59.60
2019-01-23T17:05:59.168Z,49.30
2019-01-23T17:08:30.014Z,62.80
2019-01-23T17:10:58.134Z,67.03
2019-01-23T17:13:26.260Z,69.67
2019-01-23T17:16:01.327Z,68.40
2019-01-23T17:18:30.511Z,68.47
2019-01-23T17:21:01.482Z,63.07
2019-01-23T17:23:34.025Z,67.97
2019-01-23T17:26:02.267Z,63.40
2019-01-23T17:28:30.429Z,67.60
2019-01-23T17:31:02.463Z,64.13
2019-01-23T17:33:30.599Z,63.73
2019-01-23T17:36:00.096Z,66.50
2019-01-23T17:38:28.235Z,65.97
2019-01-23T17:40:56.260Z,64.40
2019-01-23T17:43:24.969Z,73.80
2019-01-23T17:45:53.360Z,75.40
2019-01-23T17:48:22.887Z,66.00
2019-01-23T17:50:52.287Z,74.03
2019-01-23T17:53:20.622Z,71.42
2019-01-23T17:55:48.786Z,64.90
2019-01-23T17:58:17.053Z,79.13
2019-01-23T18:00:46.859Z,67.10
2019-01-23T18:03:15.400Z,75.92
2019-01-23T18:05:50.970Z,71.10
2019-01-23T18:08:14.819Z,68.60
2019-01-23T18:10:43.108Z,77.57
2019-01-23T18:13:13.152Z,70.40
2019-01-23T18:15:41.399Z,75.93
2019-01-23T18:18:10.938Z,73.97
2019-01-23T18:20:42.430Z,69.63
2019-01-23T18:23:22.474Z,87.40
2019-01-23T18:25:42.079Z,74.37
2019-01-23T18:28:10.407Z,73.67
2019-01-23T18:30:42.775Z,72.23
2019-01-23T18:33:12.586Z,72.35
2019-01-23T18:35:42.468Z,67.53
2019-01-23T18:38:13.028Z,70.77
2019-01-23T18:40:58.889Z,68.33
2019-01-23T18:43:46.787Z,74.25
2019-01-23T18:46:19.535Z,70.57
2019-01-23T18:48:52.276Z,73.10
2019-01-23T18:51:20.953Z,66.03
2019-01-23T18:53:51.602Z,74.40
2019-01-23T18:56:19.746Z,66.43
2019-01-23T18:58:47.900Z,76.70
2019-01-23T19:01:16.074Z,75.57
2019-01-23T19:03:44.235Z,64.73
2019-01-23T19:06:12.506Z,75.33
2019-01-23T19:08:40.723Z,74.50
2019-01-23T19:11:09.110Z,72.22
2019-01-23T19:13:37.267Z,76.57
2019-01-23T19:16:06.091Z,67.10
2019-01-23T19:18:34.382Z,68.90
2019-01-23T19:21:02.547Z,70.10
2019-01-23T19:23:30.632Z,75.63
2019-01-23T19:25:58.733Z,69.50
2019-01-23T19:28:27.052Z,70.60
2019-01-23T19:30:55.215Z,71.03
2019-01-23T19:33:23.306Z,72.90
2019-01-23T19:35:51.493Z,74.07
2019-01-23T19:38:20.037Z,76.37
2019-01-23T19:40:48.170Z,73.80
2019-01-23T19:43:17.236Z,77.20
2019-01-23T19:45:45.453Z,66.87
2019-01-23T19:48:13.658Z,74.43
2019-01-23T19:50:41.961Z,75.70
2019-01-23T19:53:10.047Z,67.70
2019-01-23T19:55:42.274Z,74.80
2019-01-23T19:58:10.440Z,71.00
2019-01-23T20:00:41.965Z,71.87
2019-01-23T20:03:10.033Z,67.83
2019-01-23T20:05:38.253Z,73.90
2019-01-23T20:08:06.467Z,80.77
2019-01-23T20:10:43.106Z,75.67
2019-01-23T20:13:06.133Z,75.73
2019-01-23T20:15:34.411Z,67.40
2019-01-23T20:18:02.582Z,73.25
2019-01-23T20:20:30.905Z,75.50
2019-01-23T20:23:03.373Z,75.23
2019-01-23T20:25:30.857Z,70.60
2019-01-23T20:27:59.900Z,75.30
2019-01-23T20:30:33.349Z,84.33
2019-01-23T20:33:01.561Z,74.47
2019-01-23T20:35:29.694Z,78.62
2019-01-23T20:37:57.886Z,69.73
2019-01-23T20:40:25.962Z,74.60
2019-01-23T20:42:54.173Z,76.60
2019-01-23T20:45:22.341Z,80.15
2019-01-23T20:47:50.505Z,70.00
2019-01-23T20:50:22.769Z,73.13
2019-01-23T20:52:50.904Z,70.57
2019-01-23T20:55:20.817Z,68.35
2019-01-23T20:57:50.816Z,67.13
2019-01-23T21:00:20.529Z,79.50
2019-01-23T21:03:05.165Z,79.17
2019-01-23T21:05:36.176Z,68.80
2019-01-23T21:08:04.449Z,74.87
2019-01-23T21:10:33.232Z,81.50
2019-01-23T21:13:07.269Z,74.97
2019-01-23T21:15:35.443Z,72.00
2019-01-23T21:18:03.955Z,75.03
2019-01-23T21:20:35.171Z,94.63
2019-01-23T21:23:06.623Z,67.50
2019-01-23T21:25:34.823Z,74.07
2019-01-23T21:28:07.718Z,71.53
2019-01-23T21:30:35.874Z,81.93
2019-01-23T21:33:06.866Z,68.20
2019-01-23T21:35:38.422Z,78.13
2019-01-23T21:38:06.783Z,75.50
2019-01-23T21:40:36.652Z,74.97
2019-01-23T21:43:04.791Z,72.67
2019-01-23T21:45:33.045Z,74.53
2019-01-23T21:48:01.131Z,74.30
2019-01-23T21:50:29.200Z,76.33
2019-01-23T21:52:57.473Z,80.47
2019-01-23T21:55:25.871Z,67.47
2019-01-23T21:57:55.123Z,75.60
2019-01-23T22:00:33.526Z,80.50
2019-01-23T22:03:02.579Z,72.13
2019-01-23T22:05:31.093Z,74.22
2019-01-23T22:08:09.973Z,65.23
2019-01-23T22:10:38.181Z,70.54
2019-01-23T22:13:06.406Z,64.87
2019-01-23T22:15:34.918Z,74.10
2019-01-23T22:18:03.888Z,68.00
2019-01-23T22:20:34.956Z,122.80
2019-01-23T22:23:03.221Z,104.37
2019-01-23T22:25:31.444Z,79.13
2019-01-23T22:27:59.620Z,70.17
2019-01-23T22:30:31.426Z,59.80
2019-01-23T22:32:59.546Z,70.03
2019-01-23T22:35:34.015Z,67.17
2019-01-23T22:38:02.346Z,70.43
2019-01-23T22:40:30.663Z,71.43
2019-01-23T22:42:59.082Z,78.60
2019-01-23T22:45:27.251Z,66.30
2019-01-23T22:47:55.338Z,65.80
2019-01-23T22:50:24.479Z,74.17
2019-01-23T22:52:55.653Z,72.53
2019-01-23T22:55:23.806Z,67.10
2019-01-23T22:57:51.957Z,72.63
2019-01-23T23:00:22.445Z,80.80
2019-01-23T23:02:50.754Z,78.00
2019-01-23T23:05:18.842Z,70.47
2019-01-23T23:07:47.017Z,75.00
2019-01-23T23:10:15.213Z,75.77
2019-01-23T23:12:43.316Z,73.83
2019-01-23T23:15:11.617Z,64.47
2019-01-23T23:17:39.669Z,79.07
2019-01-23T23:20:08.950Z,71.00
2019-01-23T23:22:37.082Z,83.10
2019-01-23T23:25:08.081Z,72.33
2019-01-23T23:27:39.587Z,68.90
2019-01-23T23:30:10.447Z,77.17
2019-01-23T23:32:38.547Z,76.57
2019-01-23T23:35:06.732Z,90.50
2019-01-23T23:37:36.178Z,74.60
2019-01-23T23:40:05.971Z,80.10
2019-01-23T23:42:34.065Z,74.63
2019-01-23T23:45:04.484Z,72.07
2019-01-23T23:47:32.730Z,73.67
2019-01-23T23:50:00.919Z,80.93
2019-01-23T23:52:28.955Z,75.93
2019-01-23T23:54:56.994Z,67.30
2019-01-23T23:57:25.151Z,76.00
2019-01-23T23:59:53.382Z,77.73
